Paris, IL

2:37 AM CDT on April 21, 2018 (GMT -0500)
Edgar County | | Change Station

Elev 653 ft 39.70 °N, 87.67 °W | Updated 22 minutes ago

Clear
Clear
42 °F
Feels Like 38 °F
N
6
Wind Variable Wind from ENE

Today
High -- | Low -- °F
--% Chance of Precip.
Yesterday
High -- | Low -- °F
Precip. -- in
Pressure 30.39 in
Visibility 10.0 miles
Clouds Clear
Windchill 38 °F
Dew Point 28 °F
Humidity 59%
Rainfall 0.00 in
Snow Depth Not available.
6:04 AM 7:34 PM
Waxing Crescent, 32% visible
METAR KPRG 210715Z AUTO 07005KT 10SM CLR 06/M02 A3039 RMK AO2 T00551020
Pressure 30.39 in
Visibility 10.0 miles
Clouds Clear
Windchill 38 °F
Dew Point 28 °F
Humidity 59%
Rainfall 0.00 in
Snow Depth Not available.
6:04 AM 7:34 PM
Waxing Crescent, 32% visible
METAR KPRG 210715Z AUTO 07005KT 10SM CLR 06/M02 A3039 RMK AO2 T00551020

Get Severe Weather Alerts

Thanks for signing up!

Be on the lookout for a verification email in your inbox.

You'll start receiving the daily forecast at 6 AM.

×

10-Day Weather Forecast

Almanac

Astronomy

Apr. 21, 2018 Rise Set
Actual Time
Civil Twilight
Nautical Twilight
Astronomical Twilight
Moon
Length of Visible Light
Length of Day
Tomorrow will be .
, % of the Moon is Illuminated

Today's Extremes

State Highs State Lows

Community

WunderPhotos

Category 6

Welcome to Category 6. This is the collective home for Weather Underground's featured writeups by Dr. Jeff Masters (right), Bob Henson (left), Chris Burt, and other regular contributors.

Nearby

Air Quality

  Air Quality AQ Index Pollutant
Not available.

Snow Depth

Station Depth Elevation

Earthquake Activity

City Distance Mag. Time & Date
Minimum magnitude displayed is 2.5.

Coastal Water Temperatures

Place Temperature

Stations

Nearby Weather Stations

Station Location Temp. Windchill Dew Point Humidity Wind Precip. Elev Updated Type
                   

Watches & Warnings

There are currently no watches in effect.